createdAt,value
2017-05-08T00:00:15.601Z,29.52
2017-05-08T00:02:43.913Z,30.15
2017-05-08T00:05:12.269Z,31.35
2017-05-08T00:07:41.006Z,31.00
2017-05-08T00:10:09.317Z,31.40
2017-05-08T00:12:37.629Z,31.83
2017-05-08T00:15:05.941Z,30.98
2017-05-08T00:17:39.530Z,31.58
2017-05-08T00:20:08.002Z,30.62
2017-05-08T00:22:37.066Z,32.38
2017-05-08T00:25:05.380Z,31.57
2017-05-08T00:27:33.688Z,31.02
2017-05-08T00:30:02.007Z,31.55
2017-05-08T00:32:31.101Z,30.98
2017-05-08T00:34:59.409Z,29.68
2017-05-08T00:37:27.765Z,30.03
2017-05-08T00:39:56.434Z,29.53
2017-05-08T00:42:25.717Z,29.02
2017-05-08T00:44:54.026Z,29.43
2017-05-08T00:47:22.333Z,29.25
2017-05-08T00:49:50.641Z,30.68
2017-05-08T00:52:19.701Z,30.48
2017-05-08T00:54:48.681Z,29.78
2017-05-08T00:57:16.989Z,29.57
2017-05-08T00:59:45.301Z,28.72
2017-05-08T01:02:13.608Z,29.23
2017-05-08T01:04:41.918Z,29.55
2017-05-08T01:07:10.270Z,26.87
2017-05-08T01:09:39.321Z,26.70
2017-05-08T01:12:07.629Z,27.58
2017-05-08T01:14:35.943Z,27.57
2017-05-08T01:17:04.253Z,27.22
2017-05-08T01:19:33.108Z,26.35
2017-05-08T01:22:01.653Z,29.27
2017-05-08T01:24:29.961Z,28.00
2017-05-08T01:26:58.269Z,27.12
2017-05-08T01:29:26.577Z,25.70
2017-05-08T01:31:54.949Z,25.90
2017-05-08T01:34:23.257Z,25.97
2017-05-08T01:36:52.215Z,25.07
2017-05-08T01:39:20.532Z,23.70
2017-05-08T01:41:48.841Z,24.28
2017-05-08T01:44:17.497Z,23.50
2017-05-08T01:46:46.555Z,21.10
2017-05-08T01:49:14.866Z,20.43
2017-05-08T01:51:43.178Z,19.88
2017-05-08T01:54:11.776Z,20.60
2017-05-08T01:56:40.086Z,19.45
2017-05-08T01:59:08.422Z,20.75
2017-05-08T02:01:38.021Z,18.83
2017-05-08T02:04:06.330Z,19.48
2017-05-08T02:06:34.641Z,19.92
2017-05-08T02:09:03.691Z,22.28
2017-05-08T02:11:31.997Z,24.68
2017-05-08T02:14:00.305Z,23.20
2017-05-08T02:16:28.614Z,21.28
2017-05-08T02:18:56.924Z,19.80
2017-05-08T02:21:25.850Z,20.00
2017-05-08T02:23:54.933Z,18.25
2017-05-08T02:26:23.237Z,19.63
2017-05-08T02:28:51.547Z,18.62
2017-05-08T02:31:19.858Z,18.00
2017-05-08T02:33:48.908Z,17.17
2017-05-08T02:36:17.254Z,16.13
2017-05-08T02:38:45.917Z,16.93
2017-05-08T02:41:14.225Z,17.02
2017-05-08T02:43:42.542Z,15.32
2017-05-08T02:46:10.858Z,16.60
2017-05-08T02:48:39.174Z,16.85
2017-05-08T02:51:08.226Z,15.33
2017-05-08T02:53:36.535Z,15.55
2017-05-08T02:56:05.602Z,16.27
2017-05-08T02:58:34.654Z,16.35
2017-05-08T03:01:02.974Z,16.07
2017-05-08T03:03:31.282Z,15.92
2017-05-08T03:05:59.594Z,15.88
2017-05-08T03:08:27.906Z,17.38
2017-05-08T03:10:56.963Z,15.52
2017-05-08T03:13:25.274Z,16.43
2017-05-08T03:15:53.582Z,17.20
2017-05-08T03:18:21.962Z,16.45
2017-05-08T03:20:50.274Z,16.18
2017-05-08T03:23:18.588Z,16.45
2017-05-08T03:25:47.461Z,16.97
2017-05-08T03:28:15.768Z,16.37
2017-05-08T03:30:44.437Z,16.20
2017-05-08T03:33:13.483Z,18.98
2017-05-08T03:38:11.853Z,17.20
2017-05-08T03:40:40.161Z,18.70
2017-05-08T03:43:08.465Z,18.20
2017-05-08T03:45:36.774Z,17.83
2017-05-08T03:48:05.083Z,17.75
2017-05-08T03:50:34.136Z,18.15
2017-05-08T03:53:02.481Z,18.15
2017-05-08T03:55:30.794Z,16.87
2017-05-08T03:58:00.768Z,16.13
2017-05-08T04:00:29.104Z,16.95
2017-05-08T04:02:57.463Z,20.33
2017-05-08T04:05:25.795Z,19.15
2017-05-08T04:07:54.089Z,19.93
2017-05-08T04:10:22.392Z,20.17
2017-05-08T04:12:50.701Z,19.35
2017-05-08T04:15:19.009Z,17.85
2017-05-08T04:17:48.210Z,16.73
2017-05-08T04:20:16.534Z,16.33
2017-05-08T04:22:44.843Z,16.68
2017-05-08T04:25:14.071Z,14.50
2017-05-08T04:27:42.379Z,14.58
2017-05-08T04:30:10.688Z,13.78
2017-05-08T04:32:38.998Z,12.08
2017-05-08T04:35:07.314Z,12.63
2017-05-08T04:37:35.625Z,12.07
2017-05-08T04:40:03.933Z,11.05
2017-05-08T04:42:33.025Z,11.57
2017-05-08T04:45:01.329Z,10.20
2017-05-08T04:47:29.633Z,10.73
2017-05-08T04:49:57.997Z,11.47
2017-05-08T04:52:26.301Z,10.87
2017-05-08T04:54:54.637Z,11.55
2017-05-08T04:57:22.950Z,11.87
2017-05-08T04:59:51.262Z,10.98
2017-05-08T05:02:19.585Z,11.02
2017-05-08T05:04:47.893Z,11.40
2017-05-08T05:07:16.202Z,11.88
2017-05-08T05:09:45.114Z,10.60
2017-05-08T05:12:13.422Z,11.30
2017-05-08T05:14:41.738Z,11.78
2017-05-08T05:17:10.055Z,12.82
2017-05-08T05:19:39.102Z,13.57
2017-05-08T05:22:07.830Z,13.85
2017-05-08T05:24:36.552Z,12.67
2017-05-08T05:27:04.865Z,13.98
2017-05-08T05:29:33.174Z,14.95
2017-05-08T05:32:02.229Z,14.35
2017-05-08T05:34:30.535Z,12.80
2017-05-08T05:36:58.850Z,13.42
2017-05-08T05:39:27.202Z,13.40
2017-05-08T05:41:55.513Z,13.45
2017-05-08T05:44:23.821Z,13.77
2017-05-08T05:46:52.125Z,14.02
2017-05-08T05:49:20.445Z,14.30
2017-05-08T05:51:48.873Z,13.78
2017-05-08T05:54:17.927Z,13.77
2017-05-08T05:56:46.239Z,14.25
2017-05-08T05:59:14.561Z,13.87
2017-05-08T06:01:42.879Z,14.53
2017-05-08T06:04:11.933Z,13.68
2017-05-08T06:06:40.281Z,14.63
2017-05-08T06:09:08.594Z,15.67
2017-05-08T06:11:38.090Z,12.63
2017-05-08T06:14:06.403Z,12.75
2017-05-08T06:16:34.717Z,11.67
2017-05-08T06:19:03.766Z,12.22
2017-05-08T06:21:32.085Z,11.88
2017-05-08T06:24:00.554Z,11.02
2017-05-08T06:26:28.929Z,10.82
2017-05-08T06:28:57.993Z,11.05
2017-05-08T06:31:26.302Z,10.62
2017-05-08T06:33:54.621Z,10.55
2017-05-08T06:36:22.936Z,9.93
2017-05-08T06:38:51.245Z,9.50
2017-05-08T06:41:20.296Z,9.35
2017-05-08T06:43:48.603Z,7.85
2017-05-08T06:46:16.950Z,7.20
2017-05-08T06:48:45.993Z,6.48
2017-05-08T06:51:14.302Z,6.02
2017-05-08T06:53:42.604Z,6.13
2017-05-08T06:56:10.911Z,6.08
2017-05-08T06:58:39.213Z,5.63
2017-05-08T07:01:07.518Z,6.00
2017-05-08T07:03:35.831Z,4.82
2017-05-08T07:06:04.133Z,4.60
2017-05-08T07:08:32.480Z,4.70
2017-05-08T07:11:00.797Z,4.98
2017-05-08T07:13:29.099Z,5.75
2017-05-08T07:15:57.408Z,6.15
2017-05-08T07:18:25.757Z,5.60
2017-05-08T07:20:54.065Z,6.17
2017-05-08T07:23:22.381Z,6.55
2017-05-08T07:25:50.688Z,5.70
2017-05-08T07:28:22.294Z,6.93
2017-05-08T07:30:50.614Z,6.47
2017-05-08T07:33:19.653Z,6.92
2017-05-08T07:35:47.960Z,6.30
2017-05-08T07:38:16.257Z,6.73
2017-05-08T07:40:44.598Z,7.37
2017-05-08T07:43:12.901Z,6.78
2017-05-08T07:45:41.204Z,7.48
2017-05-08T07:48:09.513Z,7.65
2017-05-08T07:50:38.595Z,7.37
2017-05-08T07:53:06.921Z,8.05
2017-05-08T07:55:35.233Z,8.17
2017-05-08T07:58:04.278Z,8.48
2017-05-08T08:00:32.586Z,9.03
2017-05-08T08:03:00.893Z,8.70
2017-05-08T08:05:30.025Z,8.80
2017-05-08T08:07:58.331Z,8.33
2017-05-08T08:10:26.639Z,8.30
2017-05-08T08:12:54.978Z,8.23
2017-05-08T08:15:23.285Z,8.47
2017-05-08T08:17:51.593Z,7.90
2017-05-08T08:20:19.897Z,9.00
2017-05-08T08:22:48.209Z,8.00
2017-05-08T08:25:16.821Z,7.63
2017-05-08T08:27:45.126Z,9.18
2017-05-08T08:30:14.078Z,9.35
2017-05-08T08:32:43.130Z,13.18
2017-05-08T08:35:11.438Z,13.67
2017-05-08T08:37:39.741Z,14.63
2017-05-08T08:40:08.049Z,13.82
2017-05-08T08:42:36.362Z,14.55
2017-05-08T08:45:04.669Z,15.90
2017-05-08T08:47:33.726Z,15.22
2017-05-08T08:50:02.038Z,16.62
2017-05-08T08:52:30.345Z,15.43
2017-05-08T08:54:58.645Z,14.90
2017-05-08T08:57:26.957Z,15.15
2017-05-08T08:59:55.274Z,15.15
2017-05-08T09:02:24.323Z,13.58
2017-05-08T09:04:52.637Z,14.72
2017-05-08T09:07:20.949Z,14.22
2017-05-08T09:09:49.257Z,13.45
2017-05-08T09:12:17.605Z,14.57
2017-05-08T09:14:45.997Z,13.43
2017-05-08T09:17:14.309Z,11.53
2017-05-08T09:19:42.614Z,10.88
2017-05-08T09:22:10.963Z,10.75
2017-05-08T09:24:39.266Z,9.92
2017-05-08T09:27:07.853Z,11.13
2017-05-08T09:29:36.165Z,10.33
2017-05-08T09:32:04.801Z,9.70
2017-05-08T09:34:33.110Z,10.40
2017-05-08T09:37:01.414Z,10.05
2017-05-08T09:39:29.723Z,10.33
2017-05-08T09:41:58.026Z,11.18
2017-05-08T09:44:26.334Z,10.65
2017-05-08T09:46:54.641Z,11.27
2017-05-08T09:49:22.954Z,11.78
2017-05-08T09:51:51.300Z,12.75
2017-05-08T09:54:19.622Z,13.70
2017-05-08T09:56:47.933Z,12.02
2017-05-08T09:59:16.255Z,13.78
2017-05-08T10:01:44.565Z,13.53
2017-05-08T10:04:13.622Z,14.45
2017-05-08T10:06:41.947Z,13.97
2017-05-08T10:09:10.358Z,13.93
2017-05-08T10:11:38.673Z,14.08
2017-05-08T10:14:07.726Z,13.30
2017-05-08T10:16:36.038Z,14.20
2017-05-08T10:19:04.353Z,12.87
2017-05-08T10:21:32.672Z,13.50
2017-05-08T10:24:01.137Z,14.35
2017-05-08T10:26:29.561Z,15.38
2017-05-08T10:28:57.869Z,14.10
2017-05-08T10:31:26.191Z,14.27
2017-05-08T10:33:55.263Z,14.40
2017-05-08T10:36:23.572Z,14.07
2017-05-08T10:38:51.890Z,15.30
2017-05-08T10:41:20.206Z,13.72
2017-05-08T10:43:49.270Z,15.67
2017-05-08T10:46:17.586Z,13.80
2017-05-08T10:48:45.921Z,13.63
2017-05-08T10:51:15.584Z,13.50
2017-05-08T10:53:43.893Z,13.57
2017-05-08T10:56:12.201Z,12.78
2017-05-08T10:58:40.529Z,14.17
2017-05-08T11:01:09.600Z,13.50
2017-05-08T11:03:37.912Z,13.23
2017-05-08T11:06:06.229Z,13.90
2017-05-08T11:08:34.543Z,13.50
2017-05-08T11:11:03.653Z,14.27
2017-05-08T11:13:38.304Z,13.23
2017-05-08T11:16:06.653Z,13.83
2017-05-08T11:18:34.966Z,14.35
2017-05-08T11:21:03.786Z,16.12
2017-05-08T11:23:32.118Z,15.70
2017-05-08T11:26:00.433Z,16.40
2017-05-08T11:28:29.138Z,16.05
2017-05-08T11:30:57.458Z,16.32
2017-05-08T11:33:25.779Z,16.43
2017-05-08T11:35:54.102Z,14.97
2017-05-08T11:38:23.166Z,16.68
2017-05-08T11:40:51.485Z,15.80
2017-05-08T11:43:19.802Z,15.00
2017-05-08T11:45:48.130Z,15.30
2017-05-08T11:48:17.198Z,15.05
2017-05-08T11:50:45.505Z,15.22
2017-05-08T11:53:13.825Z,15.08
2017-05-08T11:55:42.898Z,14.10
2017-05-08T11:58:11.214Z,14.98
2017-05-08T12:00:39.529Z,14.13
2017-05-08T12:03:07.866Z,14.62
2017-05-08T12:05:36.182Z,13.53
2017-05-08T12:08:04.542Z,13.78
2017-05-08T12:10:33.593Z,13.83
2017-05-08T12:13:02.121Z,14.07
2017-05-08T12:15:30.438Z,13.92
2017-05-08T12:17:59.146Z,13.27
2017-05-08T12:20:27.469Z,13.85
2017-05-08T12:22:56.573Z,13.58
2017-05-08T12:25:24.894Z,14.70
2017-05-08T12:27:53.209Z,14.42
2017-05-08T12:30:22.358Z,13.57
2017-05-08T12:32:50.673Z,14.75
2017-05-08T12:35:19.001Z,15.38
2017-05-08T12:37:47.321Z,15.60
2017-05-08T12:40:15.630Z,16.23
2017-05-08T12:42:43.946Z,15.90
2017-05-08T12:45:12.545Z,15.35
2017-05-08T12:47:40.893Z,15.28
2017-05-08T12:50:09.953Z,14.78
2017-05-08T12:52:38.264Z,16.25
2017-05-08T12:55:06.578Z,16.03
2017-05-08T12:57:34.898Z,15.62
2017-05-08T13:00:03.952Z,15.42
2017-05-08T13:02:32.271Z,16.77
2017-05-08T13:05:01.128Z,15.67
2017-05-08T13:07:30.181Z,17.27
2017-05-08T13:09:58.866Z,15.90
2017-05-08T13:12:27.182Z,17.00
2017-05-08T13:14:55.498Z,16.57
2017-05-08T13:17:23.805Z,17.70
2017-05-08T13:19:53.095Z,19.43
2017-05-08T13:22:21.406Z,18.78
2017-05-08T13:24:49.721Z,17.97
2017-05-08T13:27:18.041Z,18.85
2017-05-08T13:29:46.351Z,21.87
2017-05-08T13:32:15.705Z,21.08
2017-05-08T13:34:44.030Z,19.88
2017-05-08T13:37:12.342Z,20.97
2017-05-08T13:39:40.652Z,19.75
2017-05-08T13:42:08.970Z,20.25
2017-05-08T13:44:38.021Z,18.55
2017-05-08T13:47:06.746Z,19.60
2017-05-08T13:49:35.057Z,19.93
2017-05-08T13:52:03.367Z,19.60
2017-05-08T13:54:31.681Z,19.32
2017-05-08T13:57:00.963Z,18.88
2017-05-08T13:59:29.280Z,19.50
2017-05-08T14:01:57.593Z,18.02
2017-05-08T14:04:26.651Z,17.97
2017-05-08T14:06:54.957Z,18.20
2017-05-08T14:09:23.276Z,18.48
2017-05-08T14:11:51.585Z,19.23
2017-05-08T14:14:19.893Z,20.30
2017-05-08T14:16:48.613Z,18.47
2017-05-08T14:19:17.662Z,19.98
2017-05-08T14:21:45.973Z,19.17
2017-05-08T14:24:14.285Z,18.98
2017-05-08T14:26:42.595Z,19.58
2017-05-08T14:29:15.155Z,19.17
2017-05-08T14:31:43.466Z,19.27
2017-05-08T14:34:11.778Z,18.65
2017-05-08T14:36:40.095Z,17.70
2017-05-08T14:39:08.795Z,17.73
2017-05-08T14:41:37.109Z,25.23
2017-05-08T14:44:06.166Z,19.15
2017-05-08T14:46:34.477Z,30.50
2017-05-08T14:49:02.785Z,19.47
2017-05-08T14:51:31.102Z,30.35
2017-05-08T14:53:59.898Z,24.47
2017-05-08T14:56:28.211Z,17.80
2017-05-08T14:58:56.523Z,18.10
2017-05-08T15:01:25.584Z,17.45
2017-05-08T15:03:54.317Z,101.05
2017-05-08T15:06:22.822Z,53.40
2017-05-08T15:08:51.175Z,29.62
2017-05-08T15:11:19.500Z,27.10
2017-05-08T15:13:47.817Z,15.23
2017-05-08T15:16:16.135Z,17.28
2017-05-08T15:18:44.773Z,14.37
2017-05-08T15:21:13.089Z,10.77
2017-05-08T15:23:41.402Z,11.47
2017-05-08T15:26:09.718Z,11.15
2017-05-08T15:28:39.341Z,10.60
2017-05-08T15:31:18.457Z,10.38
2017-05-08T15:33:50.291Z,10.60
2017-05-08T15:36:22.216Z,12.88
2017-05-08T15:38:55.594Z,10.82
2017-05-08T15:41:24.813Z,10.27
2017-05-08T15:43:54.757Z,11.20
2017-05-08T15:46:23.075Z,10.17
2017-05-08T15:48:51.409Z,10.40
2017-05-08T15:51:25.009Z,10.58
2017-05-08T15:53:53.331Z,10.38
2017-05-08T15:56:24.597Z,10.08
2017-05-08T15:58:55.829Z,9.12
2017-05-08T16:01:27.778Z,9.32
2017-05-08T16:03:57.292Z,9.15
2017-05-08T16:06:26.971Z,11.75
2017-05-08T16:08:56.425Z,9.38
2017-05-08T16:11:25.644Z,48.32
2017-05-08T16:13:54.939Z,11.82
2017-05-08T16:16:23.638Z,18.78
2017-05-08T16:18:51.950Z,10.40
2017-05-08T16:21:20.266Z,10.82
2017-05-08T16:23:49.329Z,8.53
2017-05-08T16:26:18.271Z,39.88
2017-05-08T16:28:50.614Z,8.97
2017-05-08T16:31:19.162Z,8.75
2017-05-08T16:33:49.683Z,8.90
2017-05-08T16:36:18.792Z,8.45
2017-05-08T16:38:47.106Z,10.95
2017-05-08T16:41:15.433Z,9.37
2017-05-08T16:43:43.772Z,16.73
2017-05-08T16:46:14.828Z,34.52
2017-05-08T16:48:45.237Z,15.97
2017-05-08T16:51:13.558Z,12.38
2017-05-08T16:53:42.614Z,20.78
2017-05-08T16:56:10.929Z,22.40
2017-05-08T16:58:39.265Z,12.07
2017-05-08T17:01:10.904Z,15.05
2017-05-08T17:03:40.149Z,14.38
2017-05-08T17:06:08.469Z,14.82
2017-05-08T17:08:36.791Z,16.50
2017-05-08T17:11:05.107Z,13.72
2017-05-08T17:13:33.416Z,12.12
2017-05-08T17:16:01.730Z,12.65
2017-05-08T17:18:30.133Z,11.37
2017-05-08T17:20:58.449Z,11.83
2017-05-08T17:23:27.340Z,10.70
2017-05-08T17:25:55.664Z,10.68
2017-05-08T17:28:24.034Z,11.03
2017-05-08T17:30:52.491Z,9.40
2017-05-08T17:33:20.849Z,9.93
2017-05-08T17:35:50.220Z,12.83
2017-05-08T17:38:18.534Z,25.33
2017-05-08T17:40:46.850Z,10.35
2017-05-08T17:43:15.157Z,9.47
2017-05-08T17:45:43.465Z,9.87
2017-05-08T17:48:12.965Z,9.72
2017-05-08T17:50:41.285Z,9.00
2017-05-08T17:53:09.597Z,9.67
2017-05-08T17:55:38.649Z,10.85
2017-05-08T17:58:06.977Z,11.53
2017-05-08T18:00:35.294Z,10.63
2017-05-08T18:03:03.643Z,11.42
2017-05-08T18:05:32.886Z,12.20
2017-05-08T18:08:01.202Z,11.73
2017-05-08T18:10:29.586Z,12.10
2017-05-08T18:12:57.893Z,12.45
2017-05-08T18:15:26.208Z,12.28
2017-05-08T18:17:54.525Z,12.07
2017-05-08T18:20:23.576Z,11.25
2017-05-08T18:22:51.892Z,11.23
2017-05-08T18:25:20.209Z,12.28
2017-05-08T18:27:48.521Z,10.87
2017-05-08T18:30:17.626Z,10.47
2017-05-08T18:32:46.678Z,11.33
2017-05-08T18:35:14.986Z,11.72
2017-05-08T18:37:45.931Z,11.30
2017-05-08T18:40:15.070Z,10.08
2017-05-08T18:42:43.377Z,9.87
2017-05-08T18:45:11.681Z,9.77
2017-05-08T18:47:40.601Z,9.65
2017-05-08T18:50:08.910Z,8.97
2017-05-08T18:52:37.217Z,9.95
2017-05-08T18:55:05.561Z,10.63
2017-05-08T18:57:33.895Z,11.27
2017-05-08T19:00:02.204Z,11.45
2017-05-08T19:02:30.514Z,10.87
2017-05-08T19:04:58.953Z,10.38
2017-05-08T19:07:27.261Z,9.48
2017-05-08T19:09:57.945Z,8.80
2017-05-08T19:12:26.289Z,9.43
2017-05-08T19:14:55.337Z,10.52
2017-05-08T19:17:23.685Z,11.10
2017-05-08T19:19:52.759Z,12.78
2017-05-08T19:22:21.174Z,10.50
2017-05-08T19:27:41.435Z,9.10
2017-05-08T19:30:10.481Z,9.48
2017-05-08T19:32:42.545Z,9.22
2017-05-08T19:35:10.854Z,9.90
2017-05-08T19:37:39.354Z,9.37
2017-05-08T19:40:08.312Z,10.77
2017-05-08T19:42:36.617Z,10.72
2017-05-08T19:45:04.928Z,10.75
2017-05-08T19:47:34.023Z,11.58
2017-05-08T19:50:02.330Z,11.15
2017-05-08T19:52:30.634Z,10.48
2017-05-08T19:54:58.946Z,10.47
2017-05-08T19:57:28.043Z,11.03
2017-05-08T19:59:56.398Z,10.43
2017-05-08T20:02:24.709Z,11.98
2017-05-08T20:04:53.121Z,10.70
2017-05-08T20:07:21.473Z,11.35
2017-05-08T20:09:49.785Z,10.58
2017-05-08T20:12:18.092Z,10.55
2017-05-08T20:14:46.391Z,9.70
2017-05-08T20:17:14.698Z,10.47
2017-05-08T20:19:43.061Z,12.13
2017-05-08T20:22:12.109Z,10.02
2017-05-08T20:24:40.417Z,9.58
2017-05-08T20:27:08.725Z,10.20
2017-05-08T20:29:37.030Z,10.30
2017-05-08T20:32:05.378Z,10.23
2017-05-08T20:34:34.026Z,10.58
2017-05-08T20:37:02.329Z,10.83
2017-05-08T20:39:30.669Z,9.95
2017-05-08T20:41:59.713Z,9.58
2017-05-08T20:44:28.125Z,12.00
2017-05-08T20:46:56.430Z,9.70
2017-05-08T20:49:24.737Z,9.38
2017-05-08T20:51:53.034Z,9.00
2017-05-08T20:54:21.341Z,10.12
2017-05-08T20:56:49.686Z,9.50
2017-05-08T20:59:18.014Z,10.02
2017-05-08T21:01:46.327Z,10.58
2017-05-08T21:04:14.637Z,10.52
2017-05-08T21:06:42.933Z,9.68
2017-05-08T21:09:11.353Z,10.10
2017-05-08T21:11:39.660Z,10.67
2017-05-08T21:14:08.702Z,9.62
2017-05-08T21:16:37.301Z,9.28
2017-05-08T21:19:05.602Z,9.65
2017-05-08T21:21:33.905Z,10.05
2017-05-08T21:24:02.216Z,10.35
2017-05-08T21:26:30.526Z,9.67
2017-05-08T21:28:58.985Z,9.52
2017-05-08T21:31:28.027Z,9.75
2017-05-08T21:33:56.978Z,10.80
2017-05-08T21:36:25.281Z,9.60
2017-05-08T21:38:53.586Z,10.15
2017-05-08T21:41:21.961Z,11.60
2017-05-08T21:43:50.269Z,11.33
2017-05-08T21:46:18.878Z,12.08
2017-05-08T21:48:47.181Z,10.57
2017-05-08T21:51:15.486Z,11.83
2017-05-08T21:53:43.798Z,11.50
2017-05-08T21:56:12.847Z,11.33
2017-05-08T21:58:41.307Z,10.60
2017-05-08T22:01:10.358Z,11.52
2017-05-08T22:03:39.096Z,12.22
2017-05-08T22:06:07.402Z,13.27
2017-05-08T22:08:35.713Z,12.28
2017-05-08T22:11:04.018Z,12.05
2017-05-08T22:13:32.326Z,12.38
2017-05-08T22:16:05.438Z,11.60
2017-05-08T22:18:34.488Z,12.65
2017-05-08T22:21:02.797Z,12.88
2017-05-08T22:23:31.104Z,13.22
2017-05-08T22:25:59.413Z,13.12
2017-05-08T22:28:28.114Z,12.52
2017-05-08T22:30:56.420Z,12.42
2017-05-08T22:33:24.729Z,13.82
2017-05-08T22:35:53.469Z,12.98
2017-05-08T22:38:21.778Z,12.97
2017-05-08T22:40:50.106Z,12.75
2017-05-08T22:43:18.414Z,13.22
2017-05-08T22:45:46.718Z,12.37
2017-05-08T22:48:15.027Z,12.17
2017-05-08T22:50:43.616Z,12.37
2017-05-08T22:53:11.978Z,11.48
2017-05-08T22:55:40.283Z,12.20
2017-05-08T22:58:08.588Z,11.17
2017-05-08T23:00:37.199Z,11.17
2017-05-08T23:03:05.510Z,11.72
2017-05-08T23:05:33.825Z,10.62
2017-05-08T23:08:02.825Z,10.18
2017-05-08T23:10:31.130Z,10.57
2017-05-08T23:12:59.437Z,10.92
2017-05-08T23:15:28.062Z,10.17
2017-05-08T23:17:57.105Z,9.42
2017-05-08T23:20:25.411Z,9.33
2017-05-08T23:22:53.719Z,8.93
2017-05-08T23:25:22.018Z,8.17
2017-05-08T23:27:50.318Z,8.77
2017-05-08T23:30:18.621Z,7.50
2017-05-08T23:32:47.278Z,7.27
2017-05-08T23:35:16.330Z,6.50
2017-05-08T23:37:44.901Z,6.58
2017-05-08T23:40:13.193Z,6.37
2017-05-08T23:42:42.233Z,5.90
2017-05-08T23:45:10.777Z,5.80
2017-05-08T23:47:39.081Z,5.80
2017-05-08T23:50:07.382Z,5.32
2017-05-08T23:52:35.685Z,4.82
2017-05-08T23:55:04.371Z,4.75
2017-05-08T23:57:32.673Z,4.72
